Time;durP1;ratioP1;P1;durP2;ratioP2;P2;SDS_P1;SDS_P2;PMS_P1;PMS_P2;Temp;Humidity;BMP_temperature;BMP_pressure;BME280_temperature;BME280_humidity;BME280_pressure;Samples;Min_cycle;Max_cycle;Signal;HPM_P1;HPM_P2
2022/05/03 00:02:27;;;;;;;8.43;5.68;;;;;;;;;;5101016;28;20114;-79
2022/05/03 00:04:56;;;;;;;10.50;6.10;;;;;;;;;;5109606;28;20048;-80
2022/05/03 00:07:30;;;;;;;11.85;6.75;;;;;;;;;;5109829;28;20126;-79
2022/05/03 00:10:04;;;;;;;9.02;6.53;;;;;;;;;;5096109;28;20093;-79
2022/05/03 00:12:34;;;;;;;9.35;7.05;;;;;;;;;;5085626;28;20028;-80
2022/05/03 00:15:01;;;;;;;8.45;6.68;;;;;;;;;;5097818;28;20032;-80
2022/05/03 00:17:27;;;;;;;11.65;6.57;;;;;;;;;;5106048;28;20027;-80
2022/05/03 00:19:53;;;;;;;10.27;6.93;;;;;;;;;;5107684;28;20391;-79
2022/05/03 00:22:20;;;;;;;8.15;6.55;;;;;;;;;;5101057;28;20391;-79
2022/05/03 00:24:46;;;;;;;8.43;6.43;;;;;;;;;;5107556;28;20031;-80
2022/05/03 00:27:13;;;;;;;9.30;6.68;;;;;;;;;;5111244;28;20096;-82
2022/05/03 00:29:39;;;;;;;10.18;7.30;;;;;;;;;;5112856;28;20035;-80
2022/05/03 00:32:06;;;;;;;7.45;6.30;;;;;;;;;;5116835;28;20527;-79
2022/05/03 00:34:35;;;;;;;9.75;7.05;;;;;;;;;;5104213;28;20036;-80
2022/05/03 00:37:01;;;;;;;9.75;6.57;;;;;;;;;;5106569;28;20043;-80
2022/05/03 00:39:28;;;;;;;11.43;6.85;;;;;;;;;;5112352;28;20094;-80
2022/05/03 00:42:14;;;;;;;9.45;6.95;;;;;;;;;;5117546;28;20036;-82
2022/05/03 00:44:55;;;;;;;14.65;7.07;;;;;;;;;;5127986;28;20111;-80
2022/05/03 00:47:26;;;;;;;8.50;6.57;;;;;;;;;;5100769;28;20070;-80
2022/05/03 00:50:16;;;;;;;9.15;7.32;;;;;;;;;;5113045;28;20079;-80
2022/05/03 00:52:45;;;;;;;9.98;7.00;;;;;;;;;;5100500;28;20149;-80
2022/05/03 00:55:14;;;;;;;9.93;7.22;;;;;;;;;;5103336;28;20027;-80
2022/05/03 00:57:59;;;;;;;10.30;6.72;;;;;;;;;;5114024;28;20312;-82
2022/05/03 01:00:26;;;;;;;8.68;6.45;;;;;;;;;;5102327;28;20036;-81
2022/05/03 01:03:07;;;;;;;7.78;6.65;;;;;;;;;;5096513;28;20494;-80
2022/05/03 01:05:46;;;;;;;8.65;6.60;;;;;;;;;;5108104;28;20056;-80
2022/05/03 01:08:13;;;;;;;7.43;6.03;;;;;;;;;;5109785;28;20054;-81
2022/05/03 01:10:42;;;;;;;8.60;5.93;;;;;;;;;;5118572;28;20107;-80
2022/05/03 01:13:15;;;;;;;6.68;5.38;;;;;;;;;;5117584;28;20042;-80
2022/05/03 01:15:46;;;;;;;10.10;6.50;;;;;;;;;;5112745;28;20087;-80
2022/05/03 01:18:14;;;;;;;9.03;6.03;;;;;;;;;;5121413;28;20034;-83
2022/05/03 01:20:49;;;;;;;8.20;5.90;;;;;;;;;;5125281;28;20024;-80
2022/05/03 01:23:21;;;;;;;10.25;6.30;;;;;;;;;;5119871;28;20027;-81
2022/05/03 01:26:06;;;;;;;8.35;5.50;;;;;;;;;;5122860;27;20024;-80
2022/05/03 01:28:38;;;;;;;7.43;5.28;;;;;;;;;;5124979;28;20103;-82
2022/05/03 01:31:06;;;;;;;11.23;6.25;;;;;;;;;;5109414;28;20024;-80
2022/05/03 01:33:33;;;;;;;8.90;5.90;;;;;;;;;;5117525;28;20112;-79
2022/05/03 01:36:00;;;;;;;6.78;5.88;;;;;;;;;;5116918;28;20028;-80
2022/05/03 01:38:28;;;;;;;8.18;5.80;;;;;;;;;;5107312;28;20068;-80
2022/05/03 01:41:16;;;;;;;8.35;5.80;;;;;;;;;;5110850;28;20391;-80
2022/05/03 01:44:00;;;;;;;8.57;5.55;;;;;;;;;;5121217;28;20489;-79
2022/05/03 01:46:31;;;;;;;8.45;5.72;;;;;;;;;;5102860;28;20028;-81
2022/05/03 01:52:06;;;;;;;7.13;6.43;;;;;;;;;;5126610;28;20046;-79
2022/05/03 01:54:51;;;;;;;8.18;6.53;;;;;;;;;;5114910;28;20036;-82
2022/05/03 01:57:35;;;;;;;9.63;7.30;;;;;;;;;;5106142;28;20042;-79
2022/05/03 02:00:09;;;;;;;8.07;6.30;;;;;;;;;;5102147;28;20065;-79
2022/05/03 02:02:47;;;;;;;9.48;6.20;;;;;;;;;;5114129;28;20092;-79
2022/05/03 02:05:32;;;;;;;7.03;6.25;;;;;;;;;;5113962;28;20093;-81
2022/05/03 02:07:59;;;;;;;8.88;7.07;;;;;;;;;;5114568;28;20027;-80
2022/05/03 02:10:58;;;;;;;6.80;6.07;;;;;;;;;;5112606;28;20038;-80
2022/05/03 02:13:28;;;;;;;8.07;6.38;;;;;;;;;;5069599;28;20161;-81
2022/05/03 02:15:59;;;;;;;7.25;6.47;;;;;;;;;;5101770;28;20389;-80
2022/05/03 02:18:49;;;;;;;8.13;6.83;;;;;;;;;;5110269;28;20024;-81
2022/05/03 02:21:41;;;;;;;14.52;6.63;;;;;;;;;;5097987;28;20051;-80
2022/05/03 02:24:14;;;;;;;13.63;7.18;;;;;;;;;;5092453;28;20052;-80
2022/05/03 02:27:01;;;;;;;8.05;6.68;;;;;;;;;;5113832;28;20138;-79
2022/05/03 02:29:30;;;;;;;7.70;6.60;;;;;;;;;;5113122;28;20390;-80
2022/05/03 02:32:07;;;;;;;9.00;7.18;;;;;;;;;;5112659;28;20038;-78
2022/05/03 02:34:33;;;;;;;8.40;7.07;;;;;;;;;;5093806;28;20541;-78
2022/05/03 02:37:01;;;;;;;9.07;7.03;;;;;;;;;;5103010;28;20027;-78
2022/05/03 02:39:31;;;;;;;9.55;7.43;;;;;;;;;;5104058;27;20028;-80
2022/05/03 02:41:59;;;;;;;8.02;6.57;;;;;;;;;;5114410;28;20479;-79
2022/05/03 02:44:27;;;;;;;9.52;7.20;;;;;;;;;;5107166;28;20546;-80
2022/05/03 02:46:59;;;;;;;10.02;7.60;;;;;;;;;;5114305;28;20047;-83
2022/05/03 02:49:38;;;;;;;8.50;6.97;;;;;;;;;;5110730;28;20085;-79
2022/05/03 02:52:11;;;;;;;9.73;6.97;;;;;;;;;;5108507;28;20037;-80
2022/05/03 02:54:43;;;;;;;10.00;7.32;;;;;;;;;;5108445;28;20031;-79
2022/05/03 02:57:24;;;;;;;8.70;6.95;;;;;;;;;;5112067;28;20376;-79
2022/05/03 03:02:43;;;;;;;8.13;7.30;;;;;;;;;;5106260;28;20039;-79
2022/05/03 03:05:12;;;;;;;9.88;7.05;;;;;;;;;;5101049;28;20039;-79
2022/05/03 03:07:53;;;;;;;9.52;7.57;;;;;;;;;;5107852;28;20047;-79
2022/05/03 03:10:28;;;;;;;8.23;7.28;;;;;;;;;;5113700;27;20100;-79
2022/05/03 03:13:03;;;;;;;9.18;7.40;;;;;;;;;;5111179;28;20410;-80
2022/05/03 03:15:30;;;;;;;8.88;7.28;;;;;;;;;;5113338;28;20031;-81
2022/05/03 03:17:59;;;;;;;9.93;7.95;;;;;;;;;;5108876;28;20016;-82
2022/05/03 03:20:27;;;;;;;11.63;8.07;;;;;;;;;;5112239;28;20462;-79
2022/05/03 03:22:54;;;;;;;12.55;8.88;;;;;;;;;;5107770;28;20039;-79
2022/05/03 03:25:22;;;;;;;12.55;8.10;;;;;;;;;;5093579;28;20016;-79
2022/05/03 03:27:49;;;;;;;11.77;9.48;;;;;;;;;;5105648;28;20024;-79
2022/05/03 03:30:15;;;;;;;10.10;8.68;;;;;;;;;;5097018;28;20020;-78
2022/05/03 03:32:43;;;;;;;11.15;8.70;;;;;;;;;;5105695;28;20057;-78
2022/05/03 03:35:09;;;;;;;11.40;9.63;;;;;;;;;;5110797;27;20015;-79
2022/05/03 03:37:36;;;;;;;11.25;9.60;;;;;;;;;;5102061;28;20032;-78
2022/05/03 03:40:03;;;;;;;11.27;9.90;;;;;;;;;;5112547;28;20028;-79
2022/05/03 03:42:29;;;;;;;11.75;9.55;;;;;;;;;;5109965;28;20035;-79
2022/05/03 03:45:07;;;;;;;10.73;9.63;;;;;;;;;;5102104;28;20148;-79
2022/05/03 03:47:33;;;;;;;10.77;9.20;;;;;;;;;;5087942;28;20443;-79
2022/05/03 03:50:00;;;;;;;12.60;10.38;;;;;;;;;;5111924;28;20093;-79
2022/05/03 03:52:26;;;;;;;11.45;9.88;;;;;;;;;;5109148;28;20076;-78
2022/05/03 03:54:53;;;;;;;14.32;11.18;;;;;;;;;;5106993;28;20056;-79
2022/05/03 03:57:20;;;;;;;15.60;12.05;;;;;;;;;;5096413;28;20421;-79
2022/05/03 03:59:47;;;;;;;13.50;11.35;;;;;;;;;;5113864;28;20046;-79
2022/05/03 04:02:13;;;;;;;12.93;11.63;;;;;;;;;;5112878;28;20064;-81
2022/05/03 04:04:41;;;;;;;14.23;12.60;;;;;;;;;;5112237;28;20093;-78
2022/05/03 04:07:07;;;;;;;15.98;13.05;;;;;;;;;;5113417;28;20039;-78
2022/05/03 04:09:33;;;;;;;14.23;12.50;;;;;;;;;;5109165;28;20063;-78
2022/05/03 04:12:06;;;;;;;21.33;12.90;;;;;;;;;;5108071;28;20062;-78
2022/05/03 04:14:33;;;;;;;14.13;12.73;;;;;;;;;;5107244;28;20383;-79
2022/05/03 04:17:00;;;;;;;15.90;12.68;;;;;;;;;;5112363;28;20026;-79
2022/05/03 04:19:26;;;;;;;13.98;12.13;;;;;;;;;;5110316;28;20024;-80
2022/05/03 04:21:52;;;;;;;17.88;12.60;;;;;;;;;;5108367;28;20483;-79
2022/05/03 04:24:18;;;;;;;16.48;13.02;;;;;;;;;;5108683;28;20514;-79
2022/05/03 04:26:44;;;;;;;15.95;12.50;;;;;;;;;;5108645;28;20028;-79
2022/05/03 04:29:10;;;;;;;14.07;12.65;;;;;;;;;;5110050;28;20119;-79
2022/05/03 04:31:37;;;;;;;14.90;12.80;;;;;;;;;;5110373;28;20081;-79
2022/05/03 04:34:04;;;;;;;13.82;12.05;;;;;;;;;;5110110;28;20389;-78
2022/05/03 04:36:32;;;;;;;13.50;11.85;;;;;;;;;;5110524;28;20489;-78
2022/05/03 04:38:59;;;;;;;18.40;12.60;;;;;;;;;;5109570;28;20035;-78
2022/05/03 04:41:25;;;;;;;18.52;12.73;;;;;;;;;;5111543;28;20115;-78
2022/05/03 04:43:51;;;;;;;19.08;13.48;;;;;;;;;;5102465;28;20092;-78
2022/05/03 04:46:17;;;;;;;17.10;12.63;;;;;;;;;;5105990;28;20027;-78
2022/05/03 04:48:43;;;;;;;15.70;12.45;;;;;;;;;;5110246;28;20055;-78
2022/05/03 04:51:22;;;;;;;17.27;13.23;;;;;;;;;;5111685;28;20028;-79
2022/05/03 04:53:49;;;;;;;18.75;12.05;;;;;;;;;;5096958;28;20490;-79
2022/05/03 04:56:19;;;;;;;22.50;12.93;;;;;;;;;;5106608;28;20520;-78
2022/05/03 04:58:46;;;;;;;16.80;13.60;;;;;;;;;;5108426;28;20079;-79
2022/05/03 05:01:12;;;;;;;18.63;12.98;;;;;;;;;;5102547;28;20020;-79
2022/05/03 05:03:38;;;;;;;16.50;13.50;;;;;;;;;;5101284;28;20043;-79
2022/05/03 05:06:04;;;;;;;14.70;12.02;;;;;;;;;;5104693;28;20048;-75
2022/05/03 05:08:30;;;;;;;15.27;12.38;;;;;;;;;;5109694;28;20036;-87
2022/05/03 05:10:57;;;;;;;15.43;12.55;;;;;;;;;;5116804;28;20047;-80
2022/05/03 05:13:23;;;;;;;15.35;12.65;;;;;;;;;;5121270;28;20024;-85
2022/05/03 05:15:49;;;;;;;14.93;12.40;;;;;;;;;;5120265;28;20031;-80
2022/05/03 05:18:16;;;;;;;17.17;13.60;;;;;;;;;;5105199;28;20027;-78
2022/05/03 05:20:43;;;;;;;19.08;13.05;;;;;;;;;;5103096;28;20028;-76
2022/05/03 05:23:09;;;;;;;16.13;13.20;;;;;;;;;;5104287;28;20515;-78
2022/05/03 05:25:35;;;;;;;19.75;13.57;;;;;;;;;;5107672;28;20023;-78
2022/05/03 05:28:01;;;;;;;19.42;13.63;;;;;;;;;;5108926;28;20051;-79
2022/05/03 05:30:27;;;;;;;18.33;13.15;;;;;;;;;;5106804;28;20031;-79
2022/05/03 05:32:53;;;;;;;15.23;13.07;;;;;;;;;;5103422;28;20039;-78
2022/05/03 05:35:19;;;;;;;16.73;13.70;;;;;;;;;;5113244;28;20036;-80
2022/05/03 05:37:45;;;;;;;17.17;12.63;;;;;;;;;;5114763;28;20058;-84
2022/05/03 05:40:12;;;;;;;16.50;13.02;;;;;;;;;;5113402;28;20997;-81
2022/05/03 05:42:39;;;;;;;16.77;13.27;;;;;;;;;;5116127;28;20131;-81
2022/05/03 05:45:08;;;;;;;21.42;14.50;;;;;;;;;;5116431;28;20027;-82
2022/05/03 05:47:34;;;;;;;16.60;13.20;;;;;;;;;;5113575;28;20034;-84
2022/05/03 05:50:00;;;;;;;17.48;14.10;;;;;;;;;;5118098;28;20091;-81
2022/05/03 05:55:11;;;;;;;17.35;12.98;;;;;;;;;;5118367;28;20092;-81
2022/05/03 05:57:37;;;;;;;26.65;14.52;;;;;;;;;;5121799;28;20028;-80
2022/05/03 06:00:07;;;;;;;18.75;13.95;;;;;;;;;;5115487;28;20034;-84
2022/05/03 06:02:35;;;;;;;20.30;15.75;;;;;;;;;;5111782;28;20039;-82
2022/05/03 06:05:01;;;;;;;22.80;14.95;;;;;;;;;;5092822;28;20060;-87
2022/05/03 06:07:27;;;;;;;24.00;15.18;;;;;;;;;;5112970;28;20032;-86
2022/05/03 06:09:53;;;;;;;20.10;15.40;;;;;;;;;;5115401;28;20471;-76
2022/05/03 06:12:19;;;;;;;19.58;15.13;;;;;;;;;;5113417;28;20051;-78
2022/05/03 06:14:45;;;;;;;25.58;16.23;;;;;;;;;;5112681;28;20031;-79
2022/05/03 06:17:11;;;;;;;22.48;14.85;;;;;;;;;;5122578;28;20070;-84
2022/05/03 06:19:37;;;;;;;25.50;15.15;;;;;;;;;;5124301;28;20030;-83
2022/05/03 06:22:03;;;;;;;25.75;17.15;;;;;;;;;;5122896;28;20065;-83
2022/05/03 06:24:31;;;;;;;21.38;16.80;;;;;;;;;;5126881;28;20042;-84
2022/05/03 06:26:58;;;;;;;26.13;17.05;;;;;;;;;;5114119;28;20046;-80
2022/05/03 06:29:25;;;;;;;30.77;18.27;;;;;;;;;;5112032;28;20535;-78
2022/05/03 06:31:51;;;;;;;29.90;19.95;;;;;;;;;;5103551;28;20408;-78
2022/05/03 06:34:17;;;;;;;53.00;32.55;;;;;;;;;;5109924;28;20047;-77
2022/05/03 06:36:44;;;;;;;29.10;18.73;;;;;;;;;;5114701;28;20061;-83
2022/05/03 06:39:10;;;;;;;29.77;19.35;;;;;;;;;;5114615;28;20035;-82
2022/05/03 06:41:36;;;;;;;26.92;18.45;;;;;;;;;;5116068;28;20026;-83
2022/05/03 06:44:03;;;;;;;24.33;17.83;;;;;;;;;;5118356;28;20044;-83
2022/05/03 06:46:29;;;;;;;30.30;18.83;;;;;;;;;;5109782;28;20039;-81
2022/05/03 06:48:55;;;;;;;34.33;19.90;;;;;;;;;;5113253;28;20023;-81
2022/05/03 06:51:22;;;;;;;28.67;19.05;;;;;;;;;;5113506;28;20059;-81
2022/05/03 06:53:48;;;;;;;29.85;19.75;;;;;;;;;;5105629;28;20028;-79
2022/05/03 06:56:14;;;;;;;28.10;19.02;;;;;;;;;;5109259;28;20031;-80
2022/05/03 06:58:41;;;;;;;33.42;20.35;;;;;;;;;;5118664;28;20513;-81
2022/05/03 07:01:08;;;;;;;32.45;19.83;;;;;;;;;;5110679;28;20026;-80
2022/05/03 07:03:35;;;;;;;30.60;19.38;;;;;;;;;;5117237;28;20035;-80
2022/05/03 07:06:01;;;;;;;30.17;20.30;;;;;;;;;;5104394;28;20128;-83
2022/05/03 07:08:27;;;;;;;29.88;15.38;;;;;;;;;;5097830;28;20039;-79
2022/05/03 07:10:53;;;;;;;19.52;10.05;;;;;;;;;;5111558;28;20035;-80
2022/05/03 07:13:23;;;;;;;17.52;8.65;;;;;;;;;;5114061;28;20040;-80
2022/05/03 07:15:53;;;;;;;16.35;7.10;;;;;;;;;;5114507;28;20024;-80
2022/05/03 07:23:50;;;;;;;12.45;5.45;;;;;;;;;;5125299;28;20126;-80
2022/05/03 07:26:16;;;;;;;19.83;5.97;;;;;;;;;;5117811;28;20072;-79
2022/05/03 07:28:42;;;;;;;15.57;5.57;;;;;;;;;;5127849;28;20020;-79
2022/05/03 07:31:09;;;;;;;22.52;6.18;;;;;;;;;;5130973;28;20024;-79
2022/05/03 07:33:35;;;;;;;22.67;6.18;;;;;;;;;;5118839;28;20067;-79
2022/05/03 07:36:03;;;;;;;21.27;5.47;;;;;;;;;;5110953;28;20534;-79
2022/05/03 07:38:29;;;;;;;25.10;6.28;;;;;;;;;;5103171;28;20047;-79
2022/05/03 07:40:56;;;;;;;21.30;6.05;;;;;;;;;;5105604;28;20031;-79
2022/05/03 07:43:22;;;;;;;26.10;7.68;;;;;;;;;;5109758;28;20043;-82
2022/05/03 07:45:48;;;;;;;24.23;6.32;;;;;;;;;;5108869;28;20426;-82
2022/05/03 07:48:16;;;;;;;26.15;5.82;;;;;;;;;;5113044;28;20024;-83
2022/05/03 07:50:44;;;;;;;21.15;5.05;;;;;;;;;;5112868;28;20040;-81
2022/05/03 07:53:10;;;;;;;20.52;6.00;;;;;;;;;;5099465;28;20044;-80
2022/05/03 07:55:36;;;;;;;21.02;6.18;;;;;;;;;;5106222;28;20058;-80
2022/05/03 07:58:02;;;;;;;20.90;5.60;;;;;;;;;;5112558;28;20032;-79
2022/05/03 08:00:28;;;;;;;29.45;6.57;;;;;;;;;;5109367;28;20032;-80
2022/05/03 08:02:54;;;;;;;27.10;5.28;;;;;;;;;;5102411;28;20032;-80
2022/05/03 08:05:20;;;;;;;27.92;6.82;;;;;;;;;;5109872;28;20100;-79
2022/05/03 08:07:47;;;;;;;27.70;9.35;;;;;;;;;;5106177;28;20032;-78
2022/05/03 08:10:13;;;;;;;40.28;11.05;;;;;;;;;;5109016;28;20059;-80
2022/05/03 08:12:39;;;;;;;25.17;5.22;;;;;;;;;;5113566;28;20085;-79
2022/05/03 08:15:06;;;;;;;21.60;4.90;;;;;;;;;;5101065;28;20028;-76
2022/05/03 08:17:32;;;;;;;19.52;5.20;;;;;;;;;;5107254;28;20062;-76
2022/05/03 08:19:59;;;;;;;18.30;4.35;;;;;;;;;;5109636;28;20394;-76
2022/05/03 08:22:25;;;;;;;25.52;6.85;;;;;;;;;;5104582;28;20030;-79
2022/05/03 08:24:52;;;;;;;25.00;5.95;;;;;;;;;;5108345;28;20047;-80
2022/05/03 08:27:18;;;;;;;25.80;6.95;;;;;;;;;;5113159;28;20028;-79
2022/05/03 08:29:45;;;;;;;44.70;6.20;;;;;;;;;;5115133;28;20028;-79
2022/05/03 08:32:11;;;;;;;21.20;4.03;;;;;;;;;;5114016;28;20024;-79
2022/05/03 08:34:37;;;;;;;26.50;5.57;;;;;;;;;;5113094;28;20034;-79
2022/05/03 08:42:33;;;;;;;30.27;4.53;;;;;;;;;;5110874;28;20039;-79
2022/05/03 08:45:01;;;;;;;23.05;4.65;;;;;;;;;;5111036;28;20055;-79
2022/05/03 08:47:30;;;;;;;19.10;3.80;;;;;;;;;;5097271;28;20020;-79
2022/05/03 08:49:56;;;;;;;28.88;5.15;;;;;;;;;;5105883;28;20067;-79
2022/05/03 08:52:24;;;;;;;19.73;5.07;;;;;;;;;;5116129;28;20028;-79
2022/05/03 08:54:50;;;;;;;30.30;5.00;;;;;;;;;;5114912;28;20028;-79
2022/05/03 08:57:18;;;;;;;24.55;4.55;;;;;;;;;;5114735;28;20024;-79
2022/05/03 08:59:47;;;;;;;16.90;4.72;;;;;;;;;;5106189;28;20648;-79
2022/05/03 09:02:14;;;;;;;25.52;4.43;;;;;;;;;;5104480;28;20048;-79
2022/05/03 09:04:40;;;;;;;15.50;3.70;;;;;;;;;;5114203;28;20086;-79
2022/05/03 09:07:20;;;;;;;20.48;5.45;;;;;;;;;;5113466;28;20053;-80
2022/05/03 09:09:46;;;;;;;15.55;4.55;;;;;;;;;;5112404;28;20034;-79
2022/05/03 09:12:22;;;;;;;14.63;3.85;;;;;;;;;;5114376;28;20030;-79
2022/05/03 09:14:49;;;;;;;14.38;3.72;;;;;;;;;;5114963;28;20031;-79
2022/05/03 09:17:15;;;;;;;15.45;3.00;;;;;;;;;;5107825;28;20115;-79
2022/05/03 09:19:42;;;;;;;19.40;3.42;;;;;;;;;;5102196;28;20573;-79
2022/05/03 09:24:52;;;;;;;20.95;3.80;;;;;;;;;;5105949;28;20123;-80
2022/05/03 09:27:19;;;;;;;23.05;3.20;;;;;;;;;;5117467;27;20042;-77
2022/05/03 09:30:05;;;;;;;14.48;2.78;;;;;;;;;;5117493;28;20028;-78
2022/05/03 09:32:35;;;;;;;13.88;2.80;;;;;;;;;;5096539;28;20082;-77
2022/05/03 09:35:01;;;;;;;16.23;2.92;;;;;;;;;;5112621;28;20035;-80
2022/05/03 09:37:40;;;;;;;8.65;2.50;;;;;;;;;;5103580;28;20036;-80
2022/05/03 09:40:08;;;;;;;12.43;2.40;;;;;;;;;;5114465;28;20539;-80
2022/05/03 09:42:36;;;;;;;11.93;2.40;;;;;;;;;;5108033;28;20028;-79
2022/05/03 09:45:03;;;;;;;11.13;2.90;;;;;;;;;;5092390;28;20499;-78
2022/05/03 09:47:30;;;;;;;10.40;2.75;;;;;;;;;;5098989;28;20034;-78
2022/05/03 09:49:56;;;;;;;9.93;2.53;;;;;;;;;;5113980;28;20035;-78
2022/05/03 09:52:30;;;;;;;10.95;2.92;;;;;;;;;;5096596;28;20391;-78
2022/05/03 09:55:07;;;;;;;16.67;2.83;;;;;;;;;;5097406;28;20116;-79
2022/05/03 09:57:34;;;;;;;18.42;4.38;;;;;;;;;;5114348;28;20432;-79
2022/05/03 10:00:01;;;;;;;11.65;2.53;;;;;;;;;;5114289;28;20114;-79
2022/05/03 10:02:28;;;;;;;15.65;2.50;;;;;;;;;;5114768;28;20440;-79
2022/05/03 10:04:58;;;;;;;10.70;2.47;;;;;;;;;;5096391;28;20047;-79
2022/05/03 10:07:29;;;;;;;14.60;3.67;;;;;;;;;;5093477;28;20032;-79
2022/05/03 10:09:55;;;;;;;7.68;2.00;;;;;;;;;;5104788;28;20036;-79
2022/05/03 10:12:21;;;;;;;11.43;2.63;;;;;;;;;;5117365;28;20037;-79
2022/05/03 10:14:48;;;;;;;16.02;2.70;;;;;;;;;;5109307;28;20458;-79
2022/05/03 10:22:45;;;;;;;10.60;2.78;;;;;;;;;;5103343;28;20049;-81
2022/05/03 10:25:11;;;;;;;12.00;2.58;;;;;;;;;;5119270;28;20040;-81
2022/05/03 10:27:57;;;;;;;13.77;2.10;;;;;;;;;;5105764;28;20059;-77
2022/05/03 10:30:26;;;;;;;11.25;3.88;;;;;;;;;;5104226;28;20023;-77
2022/05/03 10:33:10;;;;;;;12.43;2.75;;;;;;;;;;5102999;28;20483;-76
2022/05/03 10:35:37;;;;;;;12.10;2.83;;;;;;;;;;5112560;28;20097;-76
2022/05/03 10:38:04;;;;;;;10.13;2.20;;;;;;;;;;5108986;28;20035;-77
2022/05/03 10:40:34;;;;;;;13.57;2.72;;;;;;;;;;5110533;28;20027;-77
2022/05/03 10:43:07;;;;;;;13.82;2.13;;;;;;;;;;5106844;28;20034;-77
2022/05/03 10:45:47;;;;;;;12.82;2.30;;;;;;;;;;5106471;27;20043;-76
2022/05/03 10:48:24;;;;;;;11.70;2.55;;;;;;;;;;5095614;28;20036;-76
2022/05/03 10:50:52;;;;;;;13.90;2.45;;;;;;;;;;5102608;28;20344;-76
2022/05/03 10:53:19;;;;;;;9.82;2.05;;;;;;;;;;5105246;28;20024;-76
2022/05/03 10:56:03;;;;;;;14.02;2.38;;;;;;;;;;5113809;28;20035;-76
2022/05/03 10:58:31;;;;;;;12.15;2.17;;;;;;;;;;5109871;28;20043;-76
2022/05/03 11:01:02;;;;;;;11.55;2.20;;;;;;;;;;5108828;28;20417;-77
2022/05/03 11:03:29;;;;;;;12.27;2.58;;;;;;;;;;5110551;28;20039;-77
2022/05/03 11:06:13;;;;;;;10.93;2.40;;;;;;;;;;5110925;28;20050;-77
2022/05/03 11:11:35;;;;;;;13.48;2.67;;;;;;;;;;5097641;27;22952;-76
2022/05/03 11:14:02;;;;;;;11.20;1.95;;;;;;;;;;5108369;27;20040;-77
2022/05/03 11:16:34;;;;;;;13.07;2.42;;;;;;;;;;5103600;28;20028;-76
2022/05/03 11:19:08;;;;;;;12.57;2.60;;;;;;;;;;5106039;28;20119;-77
2022/05/03 11:21:34;;;;;;;11.68;2.53;;;;;;;;;;5110144;28;20023;-77
2022/05/03 11:24:01;;;;;;;10.07;1.60;;;;;;;;;;5106211;28;20040;-76
2022/05/03 11:26:27;;;;;;;12.18;2.10;;;;;;;;;;5111374;28;20020;-79
2022/05/03 11:28:53;;;;;;;9.32;1.88;;;;;;;;;;5109010;28;20448;-78
2022/05/03 11:31:23;;;;;;;13.85;1.92;;;;;;;;;;5113090;28;20471;-77
2022/05/03 11:33:49;;;;;;;11.27;1.90;;;;;;;;;;5101795;28;20065;-78
2022/05/03 11:36:15;;;;;;;9.68;1.88;;;;;;;;;;5110218;28;20023;-77
2022/05/03 11:38:42;;;;;;;7.32;2.28;;;;;;;;;;5104115;28;20402;-79
2022/05/03 11:41:10;;;;;;;11.43;1.95;;;;;;;;;;5106778;28;20024;-77
2022/05/03 11:43:36;;;;;;;8.85;1.50;;;;;;;;;;5111909;28;20088;-80
2022/05/03 11:46:02;;;;;;;9.02;2.13;;;;;;;;;;5110612;28;20060;-78
2022/05/03 11:48:28;;;;;;;10.55;2.05;;;;;;;;;;5111906;28;20429;-78
2022/05/03 11:56:24;;;;;;;8.43;1.60;;;;;;;;;;5099986;28;20161;-78
2022/05/03 11:58:51;;;;;;;6.13;1.63;;;;;;;;;;5110470;28;20034;-78
2022/05/03 12:01:17;;;;;;;4.60;1.40;;;;;;;;;;5103478;28;20035;-78
2022/05/03 12:03:56;;;;;;;10.55;1.73;;;;;;;;;;5109957;28;20038;-78
2022/05/03 12:06:22;;;;;;;10.15;2.70;;;;;;;;;;5111212;28;20056;-78
2022/05/03 12:08:50;;;;;;;9.50;2.00;;;;;;;;;;5106331;28;20036;-78
2022/05/03 12:11:19;;;;;;;8.20;2.25;;;;;;;;;;5110003;28;20382;-78
2022/05/03 12:13:45;;;;;;;8.82;2.63;;;;;;;;;;5112135;27;20034;-79
2022/05/03 12:16:15;;;;;;;10.52;2.30;;;;;;;;;;5110247;28;20740;-78
2022/05/03 12:18:48;;;;;;;15.02;1.73;;;;;;;;;;5109995;28;20036;-78
2022/05/03 12:21:17;;;;;;;4.32;1.23;;;;;;;;;;5105986;28;20031;-78
2022/05/03 12:23:45;;;;;;;6.18;1.52;;;;;;;;;;5105747;28;20320;-78
2022/05/03 12:26:19;;;;;;;4.55;1.20;;;;;;;;;;5105596;28;20031;-79
2022/05/03 12:28:47;;;;;;;11.40;1.65;;;;;;;;;;5109883;28;20031;-78
2022/05/03 12:31:13;;;;;;;7.60;1.88;;;;;;;;;;5102869;28;20023;-78
2022/05/03 12:33:44;;;;;;;6.95;1.77;;;;;;;;;;5109508;28;20506;-78
2022/05/03 12:36:10;;;;;;;10.95;1.77;;;;;;;;;;5099424;28;20348;-78
2022/05/03 12:38:49;;;;;;;9.40;1.90;;;;;;;;;;5106461;28;20066;-78
2022/05/03 12:41:24;;;;;;;6.88;1.52;;;;;;;;;;5103705;28;20033;-78
2022/05/03 12:44:01;;;;;;;7.00;1.60;;;;;;;;;;5091403;28;20059;-78
2022/05/03 12:46:28;;;;;;;5.18;1.33;;;;;;;;;;5097298;28;20027;-78
2022/05/03 12:48:54;;;;;;;13.27;1.60;;;;;;;;;;5106551;28;20030;-79
2022/05/03 12:51:21;;;;;;;6.40;1.55;;;;;;;;;;5109224;28;20034;-78
2022/05/03 12:53:48;;;;;;;11.05;2.40;;;;;;;;;;5106976;28;20085;-79
2022/05/03 12:58:59;;;;;;;8.15;1.90;;;;;;;;;;5105299;28;20432;-77
2022/05/03 13:01:25;;;;;;;11.45;1.70;;;;;;;;;;5112736;28;20058;-78
2022/05/03 13:03:54;;;;;;;4.88;1.42;;;;;;;;;;5112410;28;20040;-78
2022/05/03 13:06:20;;;;;;;10.75;1.83;;;;;;;;;;5106751;28;20109;-78
2022/05/03 13:08:47;;;;;;;8.25;1.88;;;;;;;;;;5115424;28;20027;-78
2022/05/03 13:11:13;;;;;;;4.70;1.77;;;;;;;;;;5112964;28;20031;-78
2022/05/03 13:13:39;;;;;;;10.32;1.83;;;;;;;;;;5114943;28;20028;-78
2022/05/03 13:16:05;;;;;;;8.52;2.28;;;;;;;;;;5107616;28;20035;-78
2022/05/03 13:18:31;;;;;;;12.23;1.50;;;;;;;;;;5113968;28;20045;-79
2022/05/03 13:20:57;;;;;;;10.05;1.67;;;;;;;;;;5117404;28;20472;-78
2022/05/03 13:23:24;;;;;;;11.23;1.80;;;;;;;;;;5108219;28;20470;-79
2022/05/03 13:25:50;;;;;;;11.48;2.70;;;;;;;;;;5110833;28;20034;-78
2022/05/03 13:28:16;;;;;;;8.95;1.85;;;;;;;;;;5116081;28;20050;-79
2022/05/03 13:30:42;;;;;;;10.35;1.92;;;;;;;;;;5100002;28;20039;-78
2022/05/03 13:33:09;;;;;;;7.10;1.63;;;;;;;;;;5112339;28;20116;-77
2022/05/03 13:41:04;;;;;;;8.35;1.83;;;;;;;;;;5115586;28;20054;-78
2022/05/03 13:43:30;;;;;;;6.22;1.52;;;;;;;;;;5113558;28;20036;-78
2022/05/03 13:45:56;;;;;;;12.52;1.95;;;;;;;;;;5103862;28;20039;-77
2022/05/03 13:48:22;;;;;;;6.63;1.35;;;;;;;;;;5106836;28;20040;-76
2022/05/03 13:50:48;;;;;;;10.10;2.10;;;;;;;;;;5107086;27;20023;-76
2022/05/03 13:53:14;;;;;;;13.48;2.20;;;;;;;;;;5100068;28;20048;-75
2022/05/03 13:55:41;;;;;;;7.72;1.67;;;;;;;;;;5110263;28;20023;-75
2022/05/03 13:58:07;;;;;;;8.13;2.10;;;;;;;;;;5099096;28;20055;-75
2022/05/03 14:00:34;;;;;;;6.82;1.70;;;;;;;;;;5107391;28;20494;-75
2022/05/03 14:03:00;;;;;;;5.50;1.65;;;;;;;;;;5112556;28;20031;-75
2022/05/03 14:05:27;;;;;;;8.57;1.80;;;;;;;;;;5111588;28;20075;-75
2022/05/03 14:07:53;;;;;;;8.88;1.50;;;;;;;;;;5093899;28;20505;-75
2022/05/03 14:10:19;;;;;;;12.35;2.55;;;;;;;;;;5108695;28;20027;-75
2022/05/03 14:12:45;;;;;;;11.98;2.80;;;;;;;;;;5110821;28;20110;-77
2022/05/03 14:15:11;;;;;;;13.00;2.30;;;;;;;;;;5109748;28;20478;-76
2022/05/03 14:17:38;;;;;;;13.73;2.20;;;;;;;;;;5110920;28;20032;-74
2022/05/03 14:20:05;;;;;;;11.88;2.03;;;;;;;;;;5110612;28;20101;-74
2022/05/03 14:22:31;;;;;;;7.50;1.85;;;;;;;;;;5110873;28;20027;-74
2022/05/03 14:24:57;;;;;;;10.73;2.05;;;;;;;;;;5100174;28;20107;-74
2022/05/03 14:27:23;;;;;;;11.05;1.85;;;;;;;;;;5112675;27;20157;-74
2022/05/03 14:29:49;;;;;;;10.02;1.75;;;;;;;;;;5100584;28;20021;-74
2022/05/03 14:32:15;;;;;;;7.05;1.88;;;;;;;;;;5097576;28;20020;-74
2022/05/03 14:34:42;;;;;;;11.95;2.50;;;;;;;;;;5114060;28;20036;-73
2022/05/03 14:37:09;;;;;;;7.07;2.08;;;;;;;;;;5109521;28;20115;-73
2022/05/03 14:39:35;;;;;;;10.88;2.90;;;;;;;;;;5102555;28;20082;-73
2022/05/03 14:42:02;;;;;;;11.13;1.83;;;;;;;;;;5111360;27;20036;-73
2022/05/03 14:44:28;;;;;;;9.85;1.65;;;;;;;;;;5109689;28;20038;-73
2022/05/03 14:46:54;;;;;;;7.55;2.10;;;;;;;;;;5100400;28;20633;-73
2022/05/03 14:49:21;;;;;;;14.68;3.25;;;;;;;;;;5101029;28;20469;-72
2022/05/03 14:51:47;;;;;;;10.77;3.15;;;;;;;;;;5104188;28;20022;-80
2022/05/03 14:54:13;;;;;;;11.23;2.80;;;;;;;;;;5107588;28;20039;-74
2022/05/03 15:04:56;;;;;;;9.25;1.85;;;;;;;;;;5103658;28;20074;-74
2022/05/03 15:07:22;;;;;;;10.27;1.83;;;;;;;;;;5109394;28;20116;-73
2022/05/03 15:09:48;;;;;;;7.43;1.88;;;;;;;;;;5093315;28;20032;-75
2022/05/03 15:12:14;;;;;;;6.93;1.70;;;;;;;;;;5110536;28;20027;-74
2022/05/03 15:14:40;;;;;;;8.90;1.83;;;;;;;;;;5100881;28;20027;-74
2022/05/03 15:17:06;;;;;;;8.90;1.77;;;;;;;;;;5108995;28;20044;-74
2022/05/03 15:19:32;;;;;;;13.15;1.70;;;;;;;;;;5109560;28;20547;-75
2022/05/03 15:21:59;;;;;;;10.35;1.77;;;;;;;;;;5105005;28;20535;-73
2022/05/03 15:24:38;;;;;;;6.40;1.80;;;;;;;;;;5109162;28;20287;-74
2022/05/03 15:27:05;;;;;;;3.80;1.42;;;;;;;;;;5106497;28;20104;-74
2022/05/03 15:29:35;;;;;;;9.65;1.60;;;;;;;;;;5109716;28;20057;-74
2022/05/03 15:32:20;;;;;;;9.80;1.58;;;;;;;;;;5099978;28;20093;-73
2022/05/03 15:34:46;;;;;;;6.78;1.73;;;;;;;;;;5106050;28;20085;-73